sensor_id;sensor_type;location;lat;lon;timestamp;temperature;humidity
42979;DHT22;28616;44.746;19.678;2023-03-03T00:01:27;5.90;99.90
42979;DHT22;28616;44.746;19.678;2023-03-03T00:03:53;5.90;99.90
42979;DHT22;28616;44.746;19.678;2023-03-03T00:06:20;5.90;99.90
42979;DHT22;28616;44.746;19.678;2023-03-03T00:08:46;5.90;99.90
42979;DHT22;28616;44.746;19.678;2023-03-03T00:11:12;6.00;99.90
42979;DHT22;28616;44.746;19.678;2023-03-03T00:13:58;5.90;99.90
42979;DHT22;28616;44.746;19.678;2023-03-03T00:18:50;5.90;99.90
42979;DHT22;28616;44.746;19.678;2023-03-03T00:21:24;5.90;99.90
42979;DHT22;28616;44.746;19.678;2023-03-03T00:26:39;5.90;99.90
42979;DHT22;28616;44.746;19.678;2023-03-03T00:31:52;6.00;99.90
42979;DHT22;28616;44.746;19.678;2023-03-03T00:34:25;6.00;99.90
42979;DHT22;28616;44.746;19.678;2023-03-03T00:36:55;6.00;99.90
42979;DHT22;28616;44.746;19.678;2023-03-03T00:39:37;5.90;99.90
42979;DHT22;28616;44.746;19.678;2023-03-03T00:42:16;5.90;99.90
42979;DHT22;28616;44.746;19.678;2023-03-03T00:44:46;6.00;99.90
42979;DHT22;28616;44.746;19.678;2023-03-03T00:53:03;6.00;99.90
42979;DHT22;28616;44.746;19.678;2023-03-03T00:55:30;6.00;99.90
42979;DHT22;28616;44.746;19.678;2023-03-03T00:57:55;6.00;99.90
42979;DHT22;28616;44.746;19.678;2023-03-03T01:00:21;6.00;99.90
42979;DHT22;28616;44.746;19.678;2023-03-03T01:02:47;6.00;99.90
42979;DHT22;28616;44.746;19.678;2023-03-03T01:05:15;6.00;99.90
42979;DHT22;28616;44.746;19.678;2023-03-03T01:07:42;5.90;99.90
42979;DHT22;28616;44.746;19.678;2023-03-03T01:10:09;5.90;99.90
42979;DHT22;28616;44.746;19.678;2023-03-03T01:12:35;5.90;99.90
42979;DHT22;28616;44.746;19.678;2023-03-03T01:15:01;5.90;99.90
42979;DHT22;28616;44.746;19.678;2023-03-03T01:17:27;5.80;99.90
42979;DHT22;28616;44.746;19.678;2023-03-03T01:19:53;5.90;99.90
42979;DHT22;28616;44.746;19.678;2023-03-03T01:22:18;5.80;99.90
42979;DHT22;28616;44.746;19.678;2023-03-03T01:24:44;5.80;99.90
42979;DHT22;28616;44.746;19.678;2023-03-03T01:27:10;5.80;99.90
42979;DHT22;28616;44.746;19.678;2023-03-03T01:29:35;5.80;99.90
42979;DHT22;28616;44.746;19.678;2023-03-03T01:32:01;5.80;99.90
42979;DHT22;28616;44.746;19.678;2023-03-03T01:34:27;5.90;99.90
42979;DHT22;28616;44.746;19.678;2023-03-03T01:36:53;5.90;99.90
42979;DHT22;28616;44.746;19.678;2023-03-03T01:39:18;5.80;99.90
42979;DHT22;28616;44.746;19.678;2023-03-03T01:41:44;5.80;99.90
42979;DHT22;28616;44.746;19.678;2023-03-03T01:44:13;5.80;99.90
42979;DHT22;28616;44.746;19.678;2023-03-03T01:47:14;5.80;99.90
42979;DHT22;28616;44.746;19.678;2023-03-03T01:50:04;5.80;99.90
42979;DHT22;28616;44.746;19.678;2023-03-03T01:52:38;5.80;99.90
42979;DHT22;28616;44.746;19.678;2023-03-03T01:55:13;5.90;99.90
42979;DHT22;28616;44.746;19.678;2023-03-03T01:57:44;5.80;99.90
42979;DHT22;28616;44.746;19.678;2023-03-03T02:00:11;5.90;99.90
42979;DHT22;28616;44.746;19.678;2023-03-03T02:02:38;5.80;99.90
42979;DHT22;28616;44.746;19.678;2023-03-03T02:05:05;5.80;99.90
42979;DHT22;28616;44.746;19.678;2023-03-03T02:07:31;5.80;99.90
42979;DHT22;28616;44.746;19.678;2023-03-03T02:12:53;5.80;99.90
42979;DHT22;28616;44.746;19.678;2023-03-03T02:15:21;5.80;99.90
42979;DHT22;28616;44.746;19.678;2023-03-03T02:18:00;5.80;99.90
42979;DHT22;28616;44.746;19.678;2023-03-03T02:26:11;5.70;99.90
42979;DHT22;28616;44.746;19.678;2023-03-03T02:28:38;5.70;99.90
42979;DHT22;28616;44.746;19.678;2023-03-03T02:31:10;5.70;99.90
42979;DHT22;28616;44.746;19.678;2023-03-03T02:33:39;5.70;99.90
42979;DHT22;28616;44.746;19.678;2023-03-03T02:36:05;5.70;99.90
42979;DHT22;28616;44.746;19.678;2023-03-03T02:46:24;5.80;99.90
42979;DHT22;28616;44.746;19.678;2023-03-03T02:48:50;5.70;99.90
42979;DHT22;28616;44.746;19.678;2023-03-03T02:51:15;5.70;99.90
42979;DHT22;28616;44.746;19.678;2023-03-03T02:53:41;5.80;99.90
42979;DHT22;28616;44.746;19.678;2023-03-03T02:56:07;5.80;99.90
42979;DHT22;28616;44.746;19.678;2023-03-03T02:58:35;5.80;99.90
42979;DHT22;28616;44.746;19.678;2023-03-03T03:01:01;5.70;99.90
42979;DHT22;28616;44.746;19.678;2023-03-03T03:03:27;5.70;99.90
42979;DHT22;28616;44.746;19.678;2023-03-03T03:05:53;5.70;99.90
42979;DHT22;28616;44.746;19.678;2023-03-03T03:08:18;5.70;99.90
42979;DHT22;28616;44.746;19.678;2023-03-03T03:10:44;5.70;99.90
42979;DHT22;28616;44.746;19.678;2023-03-03T03:13:10;5.60;99.90
42979;DHT22;28616;44.746;19.678;2023-03-03T03:15:36;5.60;99.90
42979;DHT22;28616;44.746;19.678;2023-03-03T03:18:03;5.60;99.90
42979;DHT22;28616;44.746;19.678;2023-03-03T03:20:28;5.60;99.90
42979;DHT22;28616;44.746;19.678;2023-03-03T03:22:54;5.60;99.90
42979;DHT22;28616;44.746;19.678;2023-03-03T03:25:20;5.60;99.90
42979;DHT22;28616;44.746;19.678;2023-03-03T03:27:46;5.60;99.90
42979;DHT22;28616;44.746;19.678;2023-03-03T03:30:12;5.60;99.90
42979;DHT22;28616;44.746;19.678;2023-03-03T03:32:38;5.60;99.90
42979;DHT22;28616;44.746;19.678;2023-03-03T03:35:04;5.60;99.90
42979;DHT22;28616;44.746;19.678;2023-03-03T03:37:29;5.60;99.90
42979;DHT22;28616;44.746;19.678;2023-03-03T03:39:55;5.60;99.90
42979;DHT22;28616;44.746;19.678;2023-03-03T03:42:21;5.60;99.90
42979;DHT22;28616;44.746;19.678;2023-03-03T03:44:46;5.60;99.90
42979;DHT22;28616;44.746;19.678;2023-03-03T03:47:12;5.60;99.90
42979;DHT22;28616;44.746;19.678;2023-03-03T03:49:38;5.50;99.90
42979;DHT22;28616;44.746;19.678;2023-03-03T03:52:04;5.50;99.90
42979;DHT22;28616;44.746;19.678;2023-03-03T03:54:29;5.50;99.90
42979;DHT22;28616;44.746;19.678;2023-03-03T03:56:55;5.50;99.90
42979;DHT22;28616;44.746;19.678;2023-03-03T03:59:21;5.50;99.90
42979;DHT22;28616;44.746;19.678;2023-03-03T04:01:46;5.50;99.90
42979;DHT22;28616;44.746;19.678;2023-03-03T04:04:14;5.50;99.90
42979;DHT22;28616;44.746;19.678;2023-03-03T04:06:40;5.50;99.90
42979;DHT22;28616;44.746;19.678;2023-03-03T04:09:06;5.50;99.90
42979;DHT22;28616;44.746;19.678;2023-03-03T04:11:31;5.50;99.90
42979;DHT22;28616;44.746;19.678;2023-03-03T04:13:57;5.50;99.90
42979;DHT22;28616;44.746;19.678;2023-03-03T04:16:23;5.50;99.90
42979;DHT22;28616;44.746;19.678;2023-03-03T04:18:49;5.60;99.90
42979;DHT22;28616;44.746;19.678;2023-03-03T04:21:15;5.60;99.90
42979;DHT22;28616;44.746;19.678;2023-03-03T04:23:41;5.50;99.90
42979;DHT22;28616;44.746;19.678;2023-03-03T04:26:07;5.50;99.90
42979;DHT22;28616;44.746;19.678;2023-03-03T04:28:33;5.60;99.90
42979;DHT22;28616;44.746;19.678;2023-03-03T04:30:59;5.60;99.90
42979;DHT22;28616;44.746;19.678;2023-03-03T04:33:25;5.50;99.90
42979;DHT22;28616;44.746;19.678;2023-03-03T04:35:50;5.50;99.90
42979;DHT22;28616;44.746;19.678;2023-03-03T04:38:16;5.50;99.90
42979;DHT22;28616;44.746;19.678;2023-03-03T04:40:42;5.50;99.90
42979;DHT22;28616;44.746;19.678;2023-03-03T04:43:09;5.50;99.90
42979;DHT22;28616;44.746;19.678;2023-03-03T04:45:35;5.50;99.90
42979;DHT22;28616;44.746;19.678;2023-03-03T04:48:01;5.50;99.90
42979;DHT22;28616;44.746;19.678;2023-03-03T04:50:26;5.50;99.90
42979;DHT22;28616;44.746;19.678;2023-03-03T04:52:52;5.50;99.90
42979;DHT22;28616;44.746;19.678;2023-03-03T04:55:18;5.50;99.90
42979;DHT22;28616;44.746;19.678;2023-03-03T04:57:44;5.40;99.90
42979;DHT22;28616;44.746;19.678;2023-03-03T05:00:11;5.40;99.90
42979;DHT22;28616;44.746;19.678;2023-03-03T05:02:41;5.50;99.90
42979;DHT22;28616;44.746;19.678;2023-03-03T05:05:07;5.40;99.90
42979;DHT22;28616;44.746;19.678;2023-03-03T05:07:35;5.50;99.90
42979;DHT22;28616;44.746;19.678;2023-03-03T05:10:01;5.40;99.90
42979;DHT22;28616;44.746;19.678;2023-03-03T05:12:26;5.40;99.90
42979;DHT22;28616;44.746;19.678;2023-03-03T05:14:53;5.50;99.90
42979;DHT22;28616;44.746;19.678;2023-03-03T05:17:18;5.40;99.90
42979;DHT22;28616;44.746;19.678;2023-03-03T05:19:44;5.50;99.90
42979;DHT22;28616;44.746;19.678;2023-03-03T05:22:10;5.40;99.90
42979;DHT22;28616;44.746;19.678;2023-03-03T05:24:35;5.50;99.90
42979;DHT22;28616;44.746;19.678;2023-03-03T05:27:01;5.50;99.90
42979;DHT22;28616;44.746;19.678;2023-03-03T05:29:28;5.50;99.90
42979;DHT22;28616;44.746;19.678;2023-03-03T05:31:56;5.50;99.90
42979;DHT22;28616;44.746;19.678;2023-03-03T05:34:22;5.40;99.90
42979;DHT22;28616;44.746;19.678;2023-03-03T05:36:48;5.40;99.90
42979;DHT22;28616;44.746;19.678;2023-03-03T05:39:14;5.40;99.90
42979;DHT22;28616;44.746;19.678;2023-03-03T05:41:39;5.40;99.90
42979;DHT22;28616;44.746;19.678;2023-03-03T05:44:05;5.40;99.90
42979;DHT22;28616;44.746;19.678;2023-03-03T05:46:31;5.40;99.90
42979;DHT22;28616;44.746;19.678;2023-03-03T05:48:57;5.50;99.90
42979;DHT22;28616;44.746;19.678;2023-03-03T05:51:22;5.40;99.90
42979;DHT22;28616;44.746;19.678;2023-03-03T05:53:48;5.40;99.90
42979;DHT22;28616;44.746;19.678;2023-03-03T05:56:14;5.40;99.90
42979;DHT22;28616;44.746;19.678;2023-03-03T05:58:39;5.40;99.90
42979;DHT22;28616;44.746;19.678;2023-03-03T06:01:05;5.40;99.90
42979;DHT22;28616;44.746;19.678;2023-03-03T06:03:31;5.50;99.90
42979;DHT22;28616;44.746;19.678;2023-03-03T06:05:57;5.50;99.90
42979;DHT22;28616;44.746;19.678;2023-03-03T06:08:22;5.50;99.90
42979;DHT22;28616;44.746;19.678;2023-03-03T06:10:48;5.50;99.90
42979;DHT22;28616;44.746;19.678;2023-03-03T06:13:14;5.50;99.90
42979;DHT22;28616;44.746;19.678;2023-03-03T06:15:39;5.50;99.90
42979;DHT22;28616;44.746;19.678;2023-03-03T06:18:05;5.50;99.90
42979;DHT22;28616;44.746;19.678;2023-03-03T06:20:31;5.60;99.90
42979;DHT22;28616;44.746;19.678;2023-03-03T06:22:57;5.50;99.90
42979;DHT22;28616;44.746;19.678;2023-03-03T06:25:23;5.60;99.90
42979;DHT22;28616;44.746;19.678;2023-03-03T06:27:49;5.60;99.90
42979;DHT22;28616;44.746;19.678;2023-03-03T06:30:14;5.60;99.90
42979;DHT22;28616;44.746;19.678;2023-03-03T06:32:41;5.70;99.90
42979;DHT22;28616;44.746;19.678;2023-03-03T06:35:06;5.70;99.90
42979;DHT22;28616;44.746;19.678;2023-03-03T06:37:33;5.60;99.90
42979;DHT22;28616;44.746;19.678;2023-03-03T06:39:58;5.70;99.90
42979;DHT22;28616;44.746;19.678;2023-03-03T06:42:24;5.70;99.90
42979;DHT22;28616;44.746;19.678;2023-03-03T06:44:50;5.60;99.90
42979;DHT22;28616;44.746;19.678;2023-03-03T06:47:16;5.70;99.90
42979;DHT22;28616;44.746;19.678;2023-03-03T06:49:41;5.70;99.90
42979;DHT22;28616;44.746;19.678;2023-03-03T06:52:18;5.70;99.90
42979;DHT22;28616;44.746;19.678;2023-03-03T06:54:44;5.70;99.90
42979;DHT22;28616;44.746;19.678;2023-03-03T06:57:22;5.70;99.90
42979;DHT22;28616;44.746;19.678;2023-03-03T06:59:51;5.70;99.90
42979;DHT22;28616;44.746;19.678;2023-03-03T07:02:18;5.80;99.90
42979;DHT22;28616;44.746;19.678;2023-03-03T07:04:45;5.80;99.90
42979;DHT22;28616;44.746;19.678;2023-03-03T07:07:19;5.80;99.90
42979;DHT22;28616;44.746;19.678;2023-03-03T07:09:47;5.90;99.90
42979;DHT22;28616;44.746;19.678;2023-03-03T07:12:28;5.90;99.90
42979;DHT22;28616;44.746;19.678;2023-03-03T07:15:17;5.80;99.90
42979;DHT22;28616;44.746;19.678;2023-03-03T07:17:47;5.80;99.90
42979;DHT22;28616;44.746;19.678;2023-03-03T07:20:37;5.90;99.90
42979;DHT22;28616;44.746;19.678;2023-03-03T07:23:22;5.90;99.90
42979;DHT22;28616;44.746;19.678;2023-03-03T07:25:49;5.80;99.90
42979;DHT22;28616;44.746;19.678;2023-03-03T07:28:33;5.80;99.90
42979;DHT22;28616;44.746;19.678;2023-03-03T07:30:59;5.80;99.90
42979;DHT22;28616;44.746;19.678;2023-03-03T07:33:37;5.80;99.90
42979;DHT22;28616;44.746;19.678;2023-03-03T07:36:16;5.80;99.90
42979;DHT22;28616;44.746;19.678;2023-03-03T07:39:02;5.80;99.90
42979;DHT22;28616;44.746;19.678;2023-03-03T07:41:30;5.80;99.90
42979;DHT22;28616;44.746;19.678;2023-03-03T07:44:19;5.80;99.90
42979;DHT22;28616;44.746;19.678;2023-03-03T07:46:47;5.90;99.90
42979;DHT22;28616;44.746;19.678;2023-03-03T07:49:23;5.90;99.90
42979;DHT22;28616;44.746;19.678;2023-03-03T07:51:53;5.90;99.90
42979;DHT22;28616;44.746;19.678;2023-03-03T07:54:39;5.90;99.90
42979;DHT22;28616;44.746;19.678;2023-03-03T07:59:44;6.00;99.90
42979;DHT22;28616;44.746;19.678;2023-03-03T08:02:43;6.00;99.90
42979;DHT22;28616;44.746;19.678;2023-03-03T08:08:38;6.00;99.90
42979;DHT22;28616;44.746;19.678;2023-03-03T08:10:50;6.00;99.90
42979;DHT22;28616;44.746;19.678;2023-03-03T08:13:20;6.00;99.90
42979;DHT22;28616;44.746;19.678;2023-03-03T08:15:59;6.10;99.90
42979;DHT22;28616;44.746;19.678;2023-03-03T08:18:34;6.10;99.90
42979;DHT22;28616;44.746;19.678;2023-03-03T08:21:23;6.10;99.90
42979;DHT22;28616;44.746;19.678;2023-03-03T08:23:49;6.20;99.90
42979;DHT22;28616;44.746;19.678;2023-03-03T08:26:17;6.10;99.90
42979;DHT22;28616;44.746;19.678;2023-03-03T08:28:44;6.20;99.90
42979;DHT22;28616;44.746;19.678;2023-03-03T08:31:10;6.20;99.90
42979;DHT22;28616;44.746;19.678;2023-03-03T08:33:36;6.20;99.90
42979;DHT22;28616;44.746;19.678;2023-03-03T08:36:02;6.20;99.90
42979;DHT22;28616;44.746;19.678;2023-03-03T08:38:28;6.30;99.90
42979;DHT22;28616;44.746;19.678;2023-03-03T08:40:53;6.20;99.90
42979;DHT22;28616;44.746;19.678;2023-03-03T08:43:19;6.30;99.90
42979;DHT22;28616;44.746;19.678;2023-03-03T08:45:52;6.30;99.90
42979;DHT22;28616;44.746;19.678;2023-03-03T08:48:18;6.40;99.90
42979;DHT22;28616;44.746;19.678;2023-03-03T08:50:45;6.30;99.90
42979;DHT22;28616;44.746;19.678;2023-03-03T08:53:12;6.30;99.90
42979;DHT22;28616;44.746;19.678;2023-03-03T08:55:38;6.30;99.90
42979;DHT22;28616;44.746;19.678;2023-03-03T08:58:04;6.30;99.90
42979;DHT22;28616;44.746;19.678;2023-03-03T09:00:30;6.30;99.90
42979;DHT22;28616;44.746;19.678;2023-03-03T09:02:56;6.40;99.90
42979;DHT22;28616;44.746;19.678;2023-03-03T09:05:23;6.40;99.90
42979;DHT22;28616;44.746;19.678;2023-03-03T09:07:49;6.40;99.90
42979;DHT22;28616;44.746;19.678;2023-03-03T09:10:21;6.40;99.90
42979;DHT22;28616;44.746;19.678;2023-03-03T09:12:52;6.40;99.90
42979;DHT22;28616;44.746;19.678;2023-03-03T09:15:27;6.40;99.90
42979;DHT22;28616;44.746;19.678;2023-03-03T09:17:56;6.50;99.90
42979;DHT22;28616;44.746;19.678;2023-03-03T09:20:38;6.50;99.90
42979;DHT22;28616;44.746;19.678;2023-03-03T09:25:49;6.40;99.90
42979;DHT22;28616;44.746;19.678;2023-03-03T09:30:50;6.50;99.90
42979;DHT22;28616;44.746;19.678;2023-03-03T09:38:56;6.50;99.90
42979;DHT22;28616;44.746;19.678;2023-03-03T09:57:50;6.70;99.90
42979;DHT22;28616;44.746;19.678;2023-03-03T10:12:22;6.80;99.90
42979;DHT22;28616;44.746;19.678;2023-03-03T10:15:03;6.80;99.90
42979;DHT22;28616;44.746;19.678;2023-03-03T10:17:51;6.80;99.90
42979;DHT22;28616;44.746;19.678;2023-03-03T10:20:44;6.80;99.90
42979;DHT22;28616;44.746;19.678;2023-03-03T10:23:37;6.80;99.90
42979;DHT22;28616;44.746;19.678;2023-03-03T10:43:05;6.80;99.90
42979;DHT22;28616;44.746;19.678;2023-03-03T11:04:28;6.90;99.90
42979;DHT22;28616;44.746;19.678;2023-03-03T11:07:19;6.90;99.90
42979;DHT22;28616;44.746;19.678;2023-03-03T11:09:59;6.90;99.90
42979;DHT22;28616;44.746;19.678;2023-03-03T11:12:35;7.00;99.90
42979;DHT22;28616;44.746;19.678;2023-03-03T11:15:39;7.00;99.90
42979;DHT22;28616;44.746;19.678;2023-03-03T11:18:29;7.00;99.90
42979;DHT22;28616;44.746;19.678;2023-03-03T11:21:25;7.00;99.90
42979;DHT22;28616;44.746;19.678;2023-03-03T11:32:05;7.10;99.90
42979;DHT22;28616;44.746;19.678;2023-03-03T11:37:10;7.10;99.90
42979;DHT22;28616;44.746;19.678;2023-03-03T11:39:38;7.10;99.90
42979;DHT22;28616;44.746;19.678;2023-03-03T11:42:18;7.10;99.90
42979;DHT22;28616;44.746;19.678;2023-03-03T11:44:47;7.10;99.90
42979;DHT22;28616;44.746;19.678;2023-03-03T11:47:21;7.10;99.90
42979;DHT22;28616;44.746;19.678;2023-03-03T11:55:26;7.10;99.90
42979;DHT22;28616;44.746;19.678;2023-03-03T12:00:51;7.10;99.90
42979;DHT22;28616;44.746;19.678;2023-03-03T12:28:58;7.10;99.90
42979;DHT22;28616;44.746;19.678;2023-03-03T12:34:16;7.10;99.90
42979;DHT22;28616;44.746;19.678;2023-03-03T12:40:09;7.10;99.90
42979;DHT22;28616;44.746;19.678;2023-03-03T12:48:13;7.10;99.90
42979;DHT22;28616;44.746;19.678;2023-03-03T12:56:12;7.10;99.90
42979;DHT22;28616;44.746;19.678;2023-03-03T13:04:42;7.00;99.90
42979;DHT22;28616;44.746;19.678;2023-03-03T13:07:42;7.10;99.90
42979;DHT22;28616;44.746;19.678;2023-03-03T13:10:37;7.00;99.90
42979;DHT22;28616;44.746;19.678;2023-03-03T13:13:24;7.00;99.90
42979;DHT22;28616;44.746;19.678;2023-03-03T13:16:44;7.00;99.90
42979;DHT22;28616;44.746;19.678;2023-03-03T13:18:54;7.00;99.90
42979;DHT22;28616;44.746;19.678;2023-03-03T13:24:02;7.00;99.90
42979;DHT22;28616;44.746;19.678;2023-03-03T13:26:41;7.00;99.90
42979;DHT22;28616;44.746;19.678;2023-03-03T13:29:36;7.00;99.90
42979;DHT22;28616;44.746;19.678;2023-03-03T13:32:34;7.00;99.90
42979;DHT22;28616;44.746;19.678;2023-03-03T13:35:28;7.00;99.90
42979;DHT22;28616;44.746;19.678;2023-03-03T13:37:56;7.00;99.90
42979;DHT22;28616;44.746;19.678;2023-03-03T13:40:27;7.10;99.90
42979;DHT22;28616;44.746;19.678;2023-03-03T13:43:15;7.00;99.90
42979;DHT22;28616;44.746;19.678;2023-03-03T13:48:47;7.10;99.90
42979;DHT22;28616;44.746;19.678;2023-03-03T14:02:42;7.00;99.90
42979;DHT22;28616;44.746;19.678;2023-03-03T14:05:12;7.00;99.90
42979;DHT22;28616;44.746;19.678;2023-03-03T14:13:01;7.00;99.90
42979;DHT22;28616;44.746;19.678;2023-03-03T14:15:29;7.00;99.90
42979;DHT22;28616;44.746;19.678;2023-03-03T14:18:09;7.00;99.90
42979;DHT22;28616;44.746;19.678;2023-03-03T14:20:45;7.00;99.90
42979;DHT22;28616;44.746;19.678;2023-03-03T14:23:24;7.00;99.90
42979;DHT22;28616;44.746;19.678;2023-03-03T14:26:05;7.10;99.90
42979;DHT22;28616;44.746;19.678;2023-03-03T14:31:27;7.10;99.90
42979;DHT22;28616;44.746;19.678;2023-03-03T14:34:24;7.10;99.90
42979;DHT22;28616;44.746;19.678;2023-03-03T14:36:58;7.10;99.90
42979;DHT22;28616;44.746;19.678;2023-03-03T14:39:36;7.10;99.90
42979;DHT22;28616;44.746;19.678;2023-03-03T14:45:01;7.00;99.90
42979;DHT22;28616;44.746;19.678;2023-03-03T14:47:29;7.10;99.90
42979;DHT22;28616;44.746;19.678;2023-03-03T14:49:56;7.10;99.90
42979;DHT22;28616;44.746;19.678;2023-03-03T14:52:27;7.10;99.90
42979;DHT22;28616;44.746;19.678;2023-03-03T14:54:55;7.10;99.90
42979;DHT22;28616;44.746;19.678;2023-03-03T15:05:30;7.20;99.90
42979;DHT22;28616;44.746;19.678;2023-03-03T15:12:55;7.10;99.90
42979;DHT22;28616;44.746;19.678;2023-03-03T15:15:23;7.10;99.90
42979;DHT22;28616;44.746;19.678;2023-03-03T15:20:41;7.10;99.90
42979;DHT22;28616;44.746;19.678;2023-03-03T15:26:35;7.10;99.90
42979;DHT22;28616;44.746;19.678;2023-03-03T15:29:11;7.10;99.90
42979;DHT22;28616;44.746;19.678;2023-03-03T15:54:04;7.10;99.90
42979;DHT22;28616;44.746;19.678;2023-03-03T16:01:38;7.00;99.90
42979;DHT22;28616;44.746;19.678;2023-03-03T16:04:10;7.00;99.90
42979;DHT22;28616;44.746;19.678;2023-03-03T16:09:56;7.00;99.90
42979;DHT22;28616;44.746;19.678;2023-03-03T16:23:59;7.00;99.90
42979;DHT22;28616;44.746;19.678;2023-03-03T16:26:37;7.00;99.90
42979;DHT22;28616;44.746;19.678;2023-03-03T16:32:20;6.90;99.90
42979;DHT22;28616;44.746;19.678;2023-03-03T16:37:52;6.90;99.90
42979;DHT22;28616;44.746;19.678;2023-03-03T16:40:32;6.90;99.90
42979;DHT22;28616;44.746;19.678;2023-03-03T16:46:49;6.80;99.90
42979;DHT22;28616;44.746;19.678;2023-03-03T16:49:07;6.80;99.90
42979;DHT22;28616;44.746;19.678;2023-03-03T16:51:44;6.90;99.90
42979;DHT22;28616;44.746;19.678;2023-03-03T17:00:20;6.80;99.90
42979;DHT22;28616;44.746;19.678;2023-03-03T17:06:09;6.80;99.90
42979;DHT22;28616;44.746;19.678;2023-03-03T17:18:55;6.80;99.90
42979;DHT22;28616;44.746;19.678;2023-03-03T17:27:29;6.80;99.90
42979;DHT22;28616;44.746;19.678;2023-03-03T17:30:25;6.80;99.90
42979;DHT22;28616;44.746;19.678;2023-03-03T17:44:34;6.70;99.90
42979;DHT22;28616;44.746;19.678;2023-03-03T17:47:11;6.70;99.90
42979;DHT22;28616;44.746;19.678;2023-03-03T17:57:56;6.70;99.90
42979;DHT22;28616;44.746;19.678;2023-03-03T18:09:26;6.60;99.90
42979;DHT22;28616;44.746;19.678;2023-03-03T18:23:28;6.60;99.90
42979;DHT22;28616;44.746;19.678;2023-03-03T18:25:57;6.60;99.90
42979;DHT22;28616;44.746;19.678;2023-03-03T18:28:50;6.60;99.90
42979;DHT22;28616;44.746;19.678;2023-03-03T18:31:23;6.60;99.90
42979;DHT22;28616;44.746;19.678;2023-03-03T18:34:08;6.60;99.90
42979;DHT22;28616;44.746;19.678;2023-03-03T18:39:48;6.60;99.90
42979;DHT22;28616;44.746;19.678;2023-03-03T18:44:41;6.60;99.90
42979;DHT22;28616;44.746;19.678;2023-03-03T18:47:07;6.60;99.90
42979;DHT22;28616;44.746;19.678;2023-03-03T18:49:54;6.60;99.90
42979;DHT22;28616;44.746;19.678;2023-03-03T18:57:37;6.60;99.90
42979;DHT22;28616;44.746;19.678;2023-03-03T19:00:15;6.60;99.90
42979;DHT22;28616;44.746;19.678;2023-03-03T19:02:57;6.60;99.90
42979;DHT22;28616;44.746;19.678;2023-03-03T19:08:16;6.50;99.90
42979;DHT22;28616;44.746;19.678;2023-03-03T19:10:56;6.50;99.90
42979;DHT22;28616;44.746;19.678;2023-03-03T19:19:07;6.60;99.90
42979;DHT22;28616;44.746;19.678;2023-03-03T19:21:34;6.60;99.90
42979;DHT22;28616;44.746;19.678;2023-03-03T19:24:08;6.50;99.90
42979;DHT22;28616;44.746;19.678;2023-03-03T19:35:38;6.40;99.90
42979;DHT22;28616;44.746;19.678;2023-03-03T19:38:21;6.40;99.90
42979;DHT22;28616;44.746;19.678;2023-03-03T19:40:59;6.40;99.90
42979;DHT22;28616;44.746;19.678;2023-03-03T19:48:39;6.40;99.90
42979;DHT22;28616;44.746;19.678;2023-03-03T19:57:02;6.40;99.90
42979;DHT22;28616;44.746;19.678;2023-03-03T19:59:49;6.40;99.90
42979;DHT22;28616;44.746;19.678;2023-03-03T20:02:31;6.40;99.90
42979;DHT22;28616;44.746;19.678;2023-03-03T20:08:09;6.40;99.90
42979;DHT22;28616;44.746;19.678;2023-03-03T20:11:22;6.40;99.90
42979;DHT22;28616;44.746;19.678;2023-03-03T20:13:52;6.40;99.90
42979;DHT22;28616;44.746;19.678;2023-03-03T20:21:59;6.40;99.90
42979;DHT22;28616;44.746;19.678;2023-03-03T20:27:27;6.40;99.90
42979;DHT22;28616;44.746;19.678;2023-03-03T20:32:58;6.40;99.90
42979;DHT22;28616;44.746;19.678;2023-03-03T20:40:55;6.40;99.90
42979;DHT22;28616;44.746;19.678;2023-03-03T20:46:30;6.40;99.90
42979;DHT22;28616;44.746;19.678;2023-03-03T20:54:41;6.40;99.90
42979;DHT22;28616;44.746;19.678;2023-03-03T20:57:52;6.40;99.90
42979;DHT22;28616;44.746;19.678;2023-03-03T21:00:29;6.40;99.90
42979;DHT22;28616;44.746;19.678;2023-03-03T21:05:34;6.40;99.90
42979;DHT22;28616;44.746;19.678;2023-03-03T21:08:05;6.30;99.90
42979;DHT22;28616;44.746;19.678;2023-03-03T21:10:36;6.30;99.90
42979;DHT22;28616;44.746;19.678;2023-03-03T21:13:55;6.30;99.90
42979;DHT22;28616;44.746;19.678;2023-03-03T21:21:25;6.30;99.90
42979;DHT22;28616;44.746;19.678;2023-03-03T21:23:52;6.40;99.90
42979;DHT22;28616;44.746;19.678;2023-03-03T21:31:54;6.30;99.90
42979;DHT22;28616;44.746;19.678;2023-03-03T21:34:24;6.30;99.90
42979;DHT22;28616;44.746;19.678;2023-03-03T21:36:51;6.40;99.90
42979;DHT22;28616;44.746;19.678;2023-03-03T21:39:31;6.40;99.90
42979;DHT22;28616;44.746;19.678;2023-03-03T21:47:11;6.30;99.90
42979;DHT22;28616;44.746;19.678;2023-03-03T21:49:40;6.30;99.90
42979;DHT22;28616;44.746;19.678;2023-03-03T21:52:07;6.30;99.90
42979;DHT22;28616;44.746;19.678;2023-03-03T21:54:33;6.30;99.90
42979;DHT22;28616;44.746;19.678;2023-03-03T21:56:58;6.30;99.90
42979;DHT22;28616;44.746;19.678;2023-03-03T21:59:24;6.30;99.90
42979;DHT22;28616;44.746;19.678;2023-03-03T22:01:50;6.30;99.90
42979;DHT22;28616;44.746;19.678;2023-03-03T22:04:15;6.30;99.90
42979;DHT22;28616;44.746;19.678;2023-03-03T22:06:41;6.30;99.90
42979;DHT22;28616;44.746;19.678;2023-03-03T22:09:07;6.30;99.90
42979;DHT22;28616;44.746;19.678;2023-03-03T22:11:33;6.30;99.90
42979;DHT22;28616;44.746;19.678;2023-03-03T22:13:59;6.30;99.90
42979;DHT22;28616;44.746;19.678;2023-03-03T22:16:25;6.20;99.90
42979;DHT22;28616;44.746;19.678;2023-03-03T22:18:50;6.20;99.90
42979;DHT22;28616;44.746;19.678;2023-03-03T22:21:16;6.30;99.90
42979;DHT22;28616;44.746;19.678;2023-03-03T22:23:42;6.20;99.90
42979;DHT22;28616;44.746;19.678;2023-03-03T22:26:07;6.20;99.90
42979;DHT22;28616;44.746;19.678;2023-03-03T22:28:33;6.20;99.90
42979;DHT22;28616;44.746;19.678;2023-03-03T22:30:59;6.20;99.90
42979;DHT22;28616;44.746;19.678;2023-03-03T22:33:25;6.30;99.90
42979;DHT22;28616;44.746;19.678;2023-03-03T22:35:50;6.30;99.90
42979;DHT22;28616;44.746;19.678;2023-03-03T22:38:16;6.20;99.90
42979;DHT22;28616;44.746;19.678;2023-03-03T22:40:42;6.20;99.90
42979;DHT22;28616;44.746;19.678;2023-03-03T22:43:09;6.20;99.90
42979;DHT22;28616;44.746;19.678;2023-03-03T22:45:39;6.20;99.90
42979;DHT22;28616;44.746;19.678;2023-03-03T22:48:05;6.20;99.90
42979;DHT22;28616;44.746;19.678;2023-03-03T22:50:31;6.20;99.90
42979;DHT22;28616;44.746;19.678;2023-03-03T22:52:57;6.20;99.90
42979;DHT22;28616;44.746;19.678;2023-03-03T22:55:22;6.20;99.90
42979;DHT22;28616;44.746;19.678;2023-03-03T22:57:48;6.20;99.90
42979;DHT22;28616;44.746;19.678;2023-03-03T23:00:15;6.20;99.90
42979;DHT22;28616;44.746;19.678;2023-03-03T23:02:41;6.20;99.90
42979;DHT22;28616;44.746;19.678;2023-03-03T23:05:07;6.20;99.90